Time;durP1;ratioP1;P1;durP2;ratioP2;P2;SDS_P1;SDS_P2;PMS_P1;PMS_P2;Temp;Humidity;BMP_temperature;BMP_pressure;BME280_temperature;BME280_humidity;BME280_pressure;Samples;Min_cycle;Max_cycle;Signal;HPM_P1;HPM_P2
2021/06/25 00:01:16;;;;;;;22.53;14.13;;;;;;;20.30;74.72;100072.12;126711;1088;114433;-78
2021/06/25 00:04:04;;;;;;;29.20;15.70;;;;;;;20.12;75.40;100073.49;126686;1088;102932;-78
2021/06/25 00:06:53;;;;;;;18.20;14.03;;;;;;;19.93;75.29;100079.30;126577;1090;114971;-78
2021/06/25 00:09:41;;;;;;;17.80;12.77;;;;;;;19.76;76.19;100077.05;126829;1090;103191;-79
2021/06/25 00:12:28;;;;;;;19.10;11.90;;;;;;;19.62;77.19;100054.23;126598;1089;114581;-79
2021/06/25 00:15:18;;;;;;;15.03;11.03;;;;;;;19.48;77.65;100067.56;126660;1090;102849;-78
2021/06/25 00:18:06;;;;;;;18.53;9.33;;;;;;;19.35;78.86;100075.52;126663;1090;102241;-78
2021/06/25 00:20:55;;;;;;;11.60;8.70;;;;;;;19.18;79.49;100060.85;126670;1089;102987;-78
2021/06/25 00:23:43;;;;;;;15.90;10.03;;;;;;;19.07;79.21;100058.14;126853;1089;102891;-78
2021/06/25 00:26:30;;;;;;;;;;;;;;;18.96;79.58;100029.80;126724;1090;114661;-76
2021/06/25 00:29:19;;;;;;;13.30;9.40;;;;;;;18.86;81.03;100031.42;126805;1090;102889;-76
2021/06/25 00:32:07;;;;;;;14.40;9.20;;;;;;;18.77;81.46;100031.20;126697;1089;114540;-76
2021/06/25 00:34:55;;;;;;;14.23;10.17;;;;;;;18.70;81.45;100026.35;126616;1090;103520;-77
2021/06/25 00:37:44;;;;;;;16.90;9.70;;;;;;;18.66;81.52;100016.08;126627;1090;114475;-76
2021/06/25 00:40:34;;;;;;;13.77;8.50;;;;;;;18.62;82.22;100015.42;126682;1089;102899;-77
2021/06/25 00:43:22;;;;;;;17.30;9.50;;;;;;;18.59;82.40;100010.36;126609;1090;114311;-78
2021/06/25 00:46:11;;;;;;;12.53;8.93;;;;;;;18.56;83.71;100012.37;126663;1089;102945;-77
2021/06/25 00:48:59;;;;;;;10.27;7.77;;;;;;;18.48;84.29;99997.03;126614;1090;114736;-77
2021/06/25 00:51:47;;;;;;;13.37;7.73;;;;;;;18.44;84.49;99990.28;126787;1088;102964;-78
2021/06/25 00:54:35;;;;;;;11.90;8.03;;;;;;;18.40;84.72;99978.25;126695;1088;114434;-77
2021/06/25 00:57:23;;;;;;;11.50;8.23;;;;;;;18.35;84.54;99949.52;126694;1090;102874;-77
2021/06/25 01:00:12;;;;;;;14.50;8.40;;;;;;;18.35;84.88;99943.40;126756;1089;102871;-78
2021/06/25 01:03:01;;;;;;;14.57;8.30;;;;;;;18.33;84.44;99934.75;126553;1089;114389;-77
2021/06/25 01:05:48;;;;;;;13.27;9.00;;;;;;;18.34;83.72;99912.67;126803;1090;102983;-77
2021/06/25 01:08:38;;;;;;;15.17;9.63;;;;;;;18.35;84.12;99886.16;126722;1090;114705;-77
2021/06/25 01:11:30;;;;;;;13.30;9.30;;;;;;;18.38;84.08;99869.25;126704;1088;102940;-77
2021/06/25 01:14:20;;;;;;;16.10;10.83;;;;;;;18.40;83.87;99831.22;126615;1090;114130;-77
2021/06/25 01:17:32;;;;;;;12.33;9.60;;;;;;;18.44;84.42;99797.52;126711;1089;103001;-77
2021/06/25 01:20:28;;;;;;;12.67;8.87;;;;;;;18.42;84.45;99752.74;126698;1090;114222;-78
2021/06/25 01:23:17;;;;;;;13.87;9.97;;;;;;;18.43;84.11;99735.95;126835;1089;102852;-78
2021/06/25 01:26:05;;;;;;;16.50;10.67;;;;;;;18.43;84.27;99720.10;126567;1088;114311;-77
2021/06/25 01:28:53;;;;;;;15.53;10.67;;;;;;;18.48;84.36;99685.43;126700;1089;102882;-77
2021/06/25 01:31:42;;;;;;;13.17;9.93;;;;;;;18.54;84.21;99658.59;126502;1090;114318;-77
2021/06/25 01:34:30;;;;;;;12.23;9.10;;;;;;;18.56;84.31;99632.91;126678;1089;102951;-77
2021/06/25 01:37:19;;;;;;;14.77;10.83;;;;;;;18.56;83.84;99638.19;126717;1089;114413;-77
2021/06/25 01:45:21;;;;;;;19.97;12.40;;;;;;;18.77;84.37;99682.47;125824;1097;113184;-77
2021/06/25 01:48:11;;;;;;;24.60;14.23;;;;;;;18.86;84.04;99738.13;125927;1099;103058;-78
2021/06/25 01:50:59;;;;;;;17.50;12.97;;;;;;;18.92;83.80;99792.30;125867;1097;114535;-78
2021/06/25 01:53:46;;;;;;;19.83;12.60;;;;;;;18.98;83.66;99837.61;125530;1097;102843;-77
2021/06/25 01:56:34;;;;;;;20.00;13.27;;;;;;;19.02;83.20;99896.37;125482;1099;114347;-77
2021/06/25 01:59:22;;;;;;;;;;;;;;;19.03;83.13;99919.23;125970;1097;103895;-77
2021/06/25 02:02:12;;;;;;;18.57;13.23;;;;;;;19.07;83.53;99925.98;125851;1098;103105;-77
2021/06/25 02:04:59;;;;;;;19.47;14.03;;;;;;;19.13;83.80;99907.02;125966;1100;102985;-78
2021/06/25 02:07:47;;;;;;;20.17;14.60;;;;;;;19.19;83.27;99901.27;125840;1100;113351;-77
2021/06/25 02:10:35;;;;;;;21.50;14.27;;;;;;;19.21;82.97;99893.22;126043;1096;102890;-78
2021/06/25 02:13:23;;;;;;;19.00;13.97;;;;;;;19.24;82.98;99895.67;125857;1097;113440;-78
2021/06/25 02:16:12;;;;;;;19.87;13.43;;;;;;;19.29;82.67;99899.66;125929;1097;103073;-77
2021/06/25 02:19:01;;;;;;;23.43;14.47;;;;;;;19.32;82.98;99910.00;125874;1098;113418;-78
2021/06/25 02:21:49;;;;;;;20.55;13.70;;;;;;;19.36;83.00;99905.32;126351;1090;102811;-78
2021/06/25 02:24:39;;;;;;;22.83;14.67;;;;;;;19.40;82.88;99917.38;126848;1090;102346;-77
2021/06/25 02:27:27;;;;;;;25.60;15.10;;;;;;;19.44;82.91;99918.84;126624;1090;113380;-77
2021/06/25 02:30:16;;;;;;;19.13;13.77;;;;;;;19.47;82.37;99925.70;126694;1090;102884;-77
2021/06/25 02:33:05;;;;;;;19.83;14.57;;;;;;;19.50;82.67;99912.23;126736;1090;114371;-77
2021/06/25 02:35:53;;;;;;;20.70;14.03;;;;;;;19.56;82.22;99922.38;126800;1090;102860;-77
2021/06/25 02:38:41;;;;;;;17.70;13.93;;;;;;;19.57;82.13;99917.01;126613;1090;114482;-77
2021/06/25 02:41:30;;;;;;;21.17;13.80;;;;;;;19.61;82.60;99904.39;126705;1090;102812;-77
2021/06/25 02:44:18;;;;;;;21.17;14.30;;;;;;;19.67;81.94;99901.27;126562;1090;114462;-77
2021/06/25 02:47:14;;;;;;;;;;;;;;;19.65;81.74;99908.48;126694;1090;102984;-77
2021/06/25 02:50:05;;;;;;;21.40;14.77;;;;;;;19.70;82.53;99911.63;126565;1089;103740;-77
2021/06/25 02:52:53;;;;;;;21.67;14.53;;;;;;;19.80;82.76;99909.14;126683;1090;102997;-77
2021/06/25 02:55:51;;;;;;;20.70;15.80;;;;;;;19.86;82.10;99898.92;126591;1090;113389;-77
2021/06/25 02:58:39;;;;;;;20.27;14.53;;;;;;;19.92;81.78;99898.44;126715;1090;102969;-77
2021/06/25 03:01:26;;;;;;;;;;;;;;;20.00;81.53;99915.56;126611;1090;114573;-77
2021/06/25 03:04:14;;;;;;;21.20;15.43;;;;;;;19.97;81.00;99914.00;126671;1090;102973;-77
2021/06/25 03:07:02;;;;;;;19.75;15.75;;;;;;;19.91;80.78;99911.80;126693;1088;102889;-77
2021/06/25 03:09:50;;;;;;;26.50;15.83;;;;;;;19.88;80.91;99912.03;126544;1089;114197;-77
2021/06/25 03:12:37;;;;;;;24.67;16.47;;;;;;;19.80;80.69;99907.34;126677;1089;102820;-77
2021/06/25 03:15:25;;;;;;;24.83;16.67;;;;;;;19.87;81.15;99915.64;126692;1090;113267;-77
2021/06/25 03:18:16;;;;;;;20.77;15.20;;;;;;;19.89;80.63;99914.56;126832;1090;102849;-78
2021/06/25 03:21:04;;;;;;;23.23;14.87;;;;;;;19.90;80.60;99932.13;126615;1090;113570;-78
2021/06/25 03:23:53;;;;;;;20.20;15.90;;;;;;;19.90;80.32;99936.58;126729;1089;103115;-78
2021/06/25 03:26:41;;;;;;;22.33;15.70;;;;;;;19.88;80.39;99943.80;126676;1090;114327;-77
2021/06/25 03:29:29;;;;;;;23.47;15.40;;;;;;;19.91;80.55;99944.40;126805;1090;102844;-77
2021/06/25 03:32:17;;;;;;;22.33;16.53;;;;;;;19.94;81.00;99945.16;126700;1090;114316;-78
2021/06/25 03:35:07;;;;;;;25.43;17.00;;;;;;;20.06;80.78;99957.44;126712;1089;102943;-77
2021/06/25 03:37:55;;;;;;;25.77;17.57;;;;;;;20.13;81.13;99958.68;126593;1089;114420;-77
2021/06/25 03:40:43;;;;;;;26.20;16.93;;;;;;;20.22;80.44;99960.61;126693;1090;102917;-77
2021/06/25 03:43:32;;;;;;;24.37;16.90;;;;;;;20.19;80.27;99964.34;126669;1089;114569;-77
2021/06/25 03:46:22;;;;;;;22.73;16.73;;;;;;;20.25;80.35;99955.07;126817;1090;102952;-77
2021/06/25 03:49:10;;;;;;;23.77;16.90;;;;;;;20.22;80.32;99957.95;126701;1089;102226;-77
2021/06/25 03:51:58;;;;;;;26.90;16.90;;;;;;;20.18;79.94;99967.11;126764;1088;114189;-77
2021/06/25 03:54:46;;;;;;;22.07;16.13;;;;;;;20.14;80.73;99965.66;126676;1090;103363;-77
2021/06/25 03:57:35;;;;;;;22.70;16.57;;;;;;;20.11;80.57;99965.90;126670;1089;115008;-77
2021/06/25 04:00:24;;;;;;;22.03;15.63;;;;;;;20.09;80.82;99968.63;126709;1090;103013;-77
2021/06/25 04:03:12;;;;;;;20.87;15.63;;;;;;;20.01;80.71;99972.84;126592;1088;113360;-77
2021/06/25 04:06:01;;;;;;;21.53;15.07;;;;;;;19.93;80.81;99968.13;126727;1089;102946;-77
2021/06/25 04:08:50;;;;;;;21.30;14.77;;;;;;;19.80;81.81;99962.91;126589;1090;114469;-77
2021/06/25 04:11:38;;;;;;;21.77;15.57;;;;;;;19.68;81.45;99947.94;126689;1090;102653;-77
2021/06/25 04:14:27;;;;;;;20.03;16.00;;;;;;;19.59;81.90;99930.96;126689;1090;114424;-77
2021/06/25 04:17:15;;;;;;;22.00;17.20;;;;;;;19.56;81.81;99910.00;126739;1089;102927;-77
2021/06/25 04:20:07;;;;;;;25.05;17.45;;;;;;;19.58;82.25;99894.89;126714;1090;114464;-77
2021/06/25 04:22:54;;;;;;;28.50;19.13;;;;;;;19.65;81.98;99871.45;126729;1090;102952;-77
2021/06/25 04:25:43;;;;;;;25.23;18.80;;;;;;;19.69;82.02;99870.25;126596;1089;114421;-77
2021/06/25 04:28:31;;;;;;;28.97;21.43;;;;;;;19.71;82.00;99863.03;126678;1090;102914;-77
2021/06/25 04:31:19;;;;;;;29.17;19.37;;;;;;;19.78;82.17;99848.40;126723;1090;103030;-77
2021/06/25 04:34:08;;;;;;;23.67;18.27;;;;;;;19.91;81.82;99849.12;126653;1090;113182;-77
2021/06/25 04:36:56;;;;;;;28.63;18.80;;;;;;;19.95;81.08;99855.05;126630;1088;103039;-78
2021/06/25 04:39:44;;;;;;;27.07;19.13;;;;;;;19.99;81.52;99863.58;126620;1090;115608;-77
2021/06/25 04:42:33;;;;;;;25.60;18.10;;;;;;;20.07;81.50;99863.82;126781;1090;102928;-77
2021/06/25 04:45:21;;;;;;;26.10;19.10;;;;;;;20.15;81.73;99853.49;126606;1090;114522;-78
2021/06/25 04:48:17;;;;;;;26.07;17.83;;;;;;;20.23;81.46;99864.31;126679;1089;102952;-78
2021/06/25 04:51:05;;;;;;;26.33;18.50;;;;;;;20.28;81.24;99866.59;126728;1090;114613;-78
2021/06/25 04:53:53;;;;;;;20.63;15.53;;;;;;;20.21;80.77;99861.79;126805;1090;102817;-77
2021/06/25 04:56:52;;;;;;;20.10;14.53;;;;;;;20.13;80.73;99871.31;126612;1090;114989;-77
2021/06/25 04:59:40;;;;;;;21.90;14.63;;;;;;;20.02;80.84;99887.16;126820;1089;101264;-77
2021/06/25 05:02:28;;;;;;;21.45;14.65;;;;;;;19.91;80.88;99857.05;126649;1090;113417;-77
2021/06/25 05:05:21;;;;;;;20.30;16.25;;;;;;;19.91;80.88;99835.88;126728;1090;102867;-77
2021/06/25 05:08:10;;;;;;;20.53;16.47;;;;;;;20.03;81.29;99815.57;126857;1090;113347;-77
2021/06/25 05:10:58;;;;;;;20.87;16.30;;;;;;;20.20;81.26;99830.98;126671;1090;102884;-78
2021/06/25 05:13:46;;;;;;;26.23;19.40;;;;;;;20.37;81.28;99874.67;126735;1089;102865;-77
2021/06/25 05:16:35;;;;;;;28.43;20.23;;;;;;;20.50;80.51;99904.58;126731;1089;102856;-77
2021/06/25 05:19:23;;;;;;;25.13;18.13;;;;;;;20.58;80.00;99897.81;126643;1090;103431;-77
2021/06/25 05:22:19;;;;;;;22.97;18.77;;;;;;;20.64;79.87;99897.32;126662;1090;114428;-77
2021/06/25 05:25:08;;;;;;;22.97;17.17;;;;;;;20.73;79.34;99909.86;126754;1090;102959;-77
2021/06/25 05:27:56;;;;;;;23.30;17.23;;;;;;;20.72;79.60;99929.38;126863;1090;113265;-78
2021/06/25 05:30:44;;;;;;;20.93;17.37;;;;;;;20.79;79.89;99919.95;126683;1089;103029;-77
2021/06/25 05:33:32;;;;;;;23.53;17.03;;;;;;;20.91;79.21;99916.34;126555;1090;114327;-77
2021/06/25 05:36:20;;;;;;;21.73;17.83;;;;;;;20.98;79.26;99914.86;126747;1090;102890;-77
2021/06/25 05:39:07;;;;;;;25.13;19.73;;;;;;;21.11;79.11;99904.96;126576;1090;114499;-78
2021/06/25 05:41:55;;;;;;;22.67;18.20;;;;;;;21.23;78.91;99907.59;126737;1089;102933;-77
2021/06/25 05:44:43;;;;;;;32.47;26.50;;;;;;;21.32;78.40;99913.00;126627;1090;113380;-77
2021/06/25 05:47:31;;;;;;;31.27;24.53;;;;;;;21.39;77.94;99916.02;126780;1089;103048;-77
2021/06/25 05:50:19;;;;;;;36.70;26.70;;;;;;;21.43;78.18;99925.40;126568;1088;114462;-78
2021/06/25 05:53:07;;;;;;;29.17;22.37;;;;;;;21.43;78.36;99936.02;126681;1090;103037;-77
2021/06/25 05:55:55;;;;;;;33.03;26.13;;;;;;;21.48;77.67;99955.04;126683;1089;102827;-77
2021/06/25 05:58:43;;;;;;;28.13;22.87;;;;;;;21.49;78.04;99942.61;126575;1088;113305;-77
2021/06/25 06:01:31;;;;;;;29.77;24.87;;;;;;;21.33;77.60;99946.52;126676;1090;102850;-77
2021/06/25 06:04:19;;;;;;;35.90;27.73;;;;;;;21.26;76.96;99932.08;126615;1090;114619;-77
2021/06/25 06:07:10;;;;;;;35.03;27.00;;;;;;;21.24;78.03;99926.06;126778;1090;102786;-77
2021/06/25 06:09:59;;;;;;;34.93;28.50;;;;;;;21.22;77.73;99927.97;126747;1089;113191;-77
2021/06/25 06:12:48;;;;;;;39.47;29.90;;;;;;;21.17;77.52;99931.94;126806;1090;102883;-77
2021/06/25 06:15:36;;;;;;;34.37;29.17;;;;;;;21.15;78.50;99929.41;126710;1090;114576;-77
2021/06/25 06:18:31;;;;;;;36.47;28.83;;;;;;;21.25;78.37;99932.20;126682;1089;102870;-76
2021/06/25 06:21:21;;;;;;;37.97;29.47;;;;;;;21.34;77.73;99926.14;126601;1090;113299;-77
2021/06/25 06:33:35;;;;;;;38.87;33.27;;;;;;;21.69;77.12;99941.80;126615;1090;114796;-78
2021/06/25 06:36:32;;;;;;;43.70;31.57;;;;;;;21.77;77.56;99938.53;126689;1090;102947;-79
2021/06/25 06:39:21;;;;;;;42.63;34.37;;;;;;;21.84;76.55;99935.22;126646;1089;114374;-77
2021/06/25 06:42:10;;;;;;;45.27;34.77;;;;;;;21.87;76.98;99934.12;126676;1090;103507;-77
2021/06/25 06:44:58;;;;;;;41.37;34.43;;;;;;;21.90;76.40;99942.69;126542;1090;114592;-78
2021/06/25 06:47:45;;;;;;;49.50;35.13;;;;;;;21.85;76.20;99941.38;126724;1089;103011;-78
2021/06/25 06:50:33;;;;;;;45.60;35.03;;;;;;;21.87;76.42;99947.39;126792;1090;113505;-78
2021/06/25 06:53:22;;;;;;;41.20;33.77;;;;;;;21.99;76.15;99954.34;126811;1090;102891;-77
2021/06/25 06:56:16;;;;;;;42.40;35.13;;;;;;;22.08;75.67;99948.27;126714;1090;103412;-78
2021/06/25 06:59:04;;;;;;;43.87;34.97;;;;;;;22.22;75.47;99955.07;126944;1090;103922;-78
2021/06/25 07:01:51;;;;;;;43.50;33.20;;;;;;;22.26;75.74;99961.80;126858;1089;102858;-78
2021/06/25 07:04:53;;;;;;;41.43;35.03;;;;;;;22.37;75.21;99960.90;126735;1090;114267;-77
2021/06/25 07:07:41;;;;;;;38.93;33.07;;;;;;;22.47;74.73;99959.15;126741;1090;100853;-79
2021/06/25 07:10:33;;;;;;;35.83;31.40;;;;;;;22.50;74.73;99962.38;126617;1090;113249;-79
2021/06/25 07:13:21;;;;;;;36.20;30.63;;;;;;;22.52;74.39;99959.58;126657;1090;102914;-78
2021/06/25 07:16:14;;;;;;;39.70;31.13;;;;;;;22.57;74.20;99966.17;126709;1088;114418;-79
2021/06/25 07:19:03;;;;;;;36.60;30.37;;;;;;;22.71;74.90;99974.78;126839;1089;102997;-78
2021/06/25 07:21:51;;;;;;;30.70;26.23;;;;;;;22.92;75.07;99975.59;126557;1089;114499;-78
2021/06/25 07:24:38;;;;;;;37.57;29.53;;;;;;;23.20;74.12;99974.00;126681;1089;102868;-78
2021/06/25 07:27:26;;;;;;;35.45;30.35;;;;;;;23.32;73.54;99972.05;126558;1090;114486;-78
2021/06/25 07:30:16;;;;;;;31.90;26.90;;;;;;;23.33;72.59;99979.89;126827;1090;102948;-78
2021/06/25 07:33:04;;;;;;;32.53;27.70;;;;;;;23.27;72.21;99980.45;126572;1090;114447;-78
2021/06/25 07:35:53;;;;;;;31.90;27.15;;;;;;;23.22;71.64;99969.38;126793;1090;103260;-78
2021/06/25 07:38:42;;;;;;;32.95;27.65;;;;;;;23.25;72.06;99984.23;126773;1089;103190;-78
2021/06/25 07:41:29;;;;;;;32.33;27.83;;;;;;;23.23;72.02;99987.03;126812;1090;102933;-78
2021/06/25 07:44:17;;;;;;;33.55;28.80;;;;;;;23.19;71.93;99977.64;126817;1090;102887;-78
2021/06/25 07:47:05;;;;;;;32.23;28.37;;;;;;;23.17;71.85;99968.96;126738;1088;114469;-78
2021/06/25 07:49:52;;;;;;;34.10;30.05;;;;;;;23.14;71.77;99970.05;126840;1088;102882;-78
2021/06/25 07:52:41;;;;;;;37.63;31.23;;;;;;;23.10;71.58;99973.97;126632;1089;114450;-79
2021/06/25 07:55:29;;;;;;;36.10;31.10;;;;;;;23.05;71.96;99978.86;126752;1089;102843;-79
2021/06/25 07:58:19;;;;;;;40.23;33.13;;;;;;;23.00;71.24;99978.44;126707;1089;114452;-78
2021/06/25 08:01:08;;;;;;;40.13;35.20;;;;;;;22.98;71.92;99982.17;126733;1089;102759;-78
2021/06/25 08:03:56;;;;;;;43.03;37.67;;;;;;;22.94;71.59;99989.59;126535;1089;114444;-78
2021/06/25 08:06:43;;;;;;;43.73;38.30;;;;;;;22.89;71.30;99992.66;126674;1090;102846;-78
2021/06/25 08:09:31;;;;;;;44.13;36.27;;;;;;;22.88;71.29;99996.30;126573;1090;114571;-78
2021/06/25 08:12:19;;;;;;;40.67;34.50;;;;;;;22.94;72.15;99991.41;126719;1090;102968;-78
2021/06/25 08:15:07;;;;;;;36.73;32.83;;;;;;;22.99;71.47;99991.87;126841;1089;102892;-79
2021/06/25 08:17:55;;;;;;;37.23;32.27;;;;;;;23.03;71.64;99982.64;126610;1088;102990;-78
2021/06/25 08:20:43;;;;;;;37.07;32.23;;;;;;;23.04;71.52;99984.31;126652;1089;103713;-77
2021/06/25 08:23:32;;;;;;;34.77;30.33;;;;;;;23.06;70.66;99977.88;126571;1090;113464;-79
2021/06/25 08:26:20;;;;;;;36.10;32.20;;;;;;;23.06;71.45;99987.68;126696;1090;102947;-78
2021/06/25 08:29:07;;;;;;;42.13;36.17;;;;;;;23.08;70.85;99977.74;126532;1090;114563;-78
2021/06/25 08:31:55;;;;;;;39.07;34.40;;;;;;;23.06;71.10;99983.20;126697;1089;102885;-78
2021/06/25 08:34:43;;;;;;;40.37;35.97;;;;;;;23.25;71.43;99979.75;126555;1090;114594;-78
2021/06/25 08:37:32;;;;;;;41.10;36.57;;;;;;;23.45;70.31;99977.96;126608;1090;102923;-78
2021/06/25 08:40:21;;;;;;;40.83;36.43;;;;;;;23.59;70.71;99972.27;126572;1090;114685;-78
2021/06/25 08:43:09;;;;;;;38.47;34.23;;;;;;;23.85;70.10;99972.54;126686;1090;102849;-78
2021/06/25 08:46:00;;;;;;;35.10;31.30;;;;;;;24.02;69.92;99977.16;126568;1090;114901;-78
2021/06/25 08:48:51;;;;;;;39.43;33.33;;;;;;;24.17;69.55;99980.23;126715;1089;101671;-78
2021/06/25 08:51:39;;;;;;;34.83;31.23;;;;;;;24.23;68.46;99981.47;126559;1090;114422;-78
2021/06/25 08:54:27;;;;;;;34.50;30.73;;;;;;;24.42;68.31;99978.83;126670;1089;102877;-78
2021/06/25 08:57:14;;;;;;;35.67;31.40;;;;;;;24.53;67.64;99983.13;126729;1090;102865;-78
2021/06/25 09:00:05;;;;;;;34.97;30.97;;;;;;;24.54;67.62;99988.31;126613;1090;114286;-78
2021/06/25 09:02:56;;;;;;;34.13;30.30;;;;;;;24.56;67.09;99974.83;126679;1089;102890;-79
2021/06/25 09:05:43;;;;;;;34.00;30.37;;;;;;;24.60;66.13;99981.58;126570;1090;114534;-79
2021/06/25 09:08:31;;;;;;;33.23;28.57;;;;;;;24.61;66.49;99978.77;126703;1089;102842;-78
2021/06/25 09:11:31;;;;;;;33.03;29.50;;;;;;;24.74;66.03;99974.91;126574;1089;115143;-78
2021/06/25 09:14:20;;;;;;;32.23;28.07;;;;;;;24.80;65.54;99977.02;126767;1090;100422;-78
2021/06/25 09:17:07;;;;;;;34.00;30.50;;;;;;;24.90;66.57;99989.30;126733;1089;114280;-78
2021/06/25 09:20:07;;;;;;;30.23;26.93;;;;;;;25.08;65.55;99981.38;126703;1089;102712;-78
2021/06/25 09:22:54;;;;;;;33.27;27.33;;;;;;;25.14;64.67;99991.48;126630;1090;114253;-78
2021/06/25 09:25:55;;;;;;;29.77;26.57;;;;;;;25.05;65.00;99997.69;126690;1090;103098;-78
2021/06/25 09:28:49;;;;;;;30.00;26.83;;;;;;;24.86;64.38;99987.92;126723;1088;114371;-78
2021/06/25 09:31:37;;;;;;;24.30;21.80;;;;;;;24.69;65.15;99997.53;126785;1089;101270;-78
2021/06/25 09:34:35;;;;;;;22.73;19.57;;;;;;;24.58;64.93;99995.03;126538;1090;114631;-78
2021/06/25 09:37:23;;;;;;;20.87;18.67;;;;;;;24.53;65.97;100002.63;126835;1089;102769;-78
2021/06/25 09:40:13;;;;;;;20.80;18.70;;;;;;;24.49;65.20;99992.41;126741;1090;114647;-78
2021/06/25 09:43:13;;;;;;;20.97;18.77;;;;;;;24.58;65.16;99980.86;126724;1090;102869;-78
2021/06/25 09:46:03;;;;;;;19.93;17.83;;;;;;;24.61;64.49;99973.43;126539;1090;114458;-77
2021/06/25 09:48:53;;;;;;;19.53;17.53;;;;;;;24.74;64.30;99974.91;126771;1089;103003;-77
2021/06/25 09:51:53;;;;;;;18.10;16.17;;;;;;;24.85;64.24;99980.06;126714;1090;113432;-77
2021/06/25 09:54:40;;;;;;;21.17;19.03;;;;;;;25.03;64.17;99978.33;126801;1089;102871;-77
2021/06/25 09:57:29;;;;;;;21.37;19.27;;;;;;;25.07;63.76;99979.70;126630;1088;102828;-77
2021/06/25 10:00:23;;;;;;;22.10;19.90;;;;;;;25.05;63.46;99981.69;126567;1089;113460;-77
2021/06/25 10:03:14;;;;;;;25.67;22.97;;;;;;;25.11;62.51;99967.73;126793;1090;102869;-79
2021/06/25 10:06:13;;;;;;;20.97;18.87;;;;;;;25.12;63.65;99969.41;126670;1090;114505;-78
2021/06/25 10:09:02;;;;;;;26.70;23.90;;;;;;;25.24;62.78;99964.72;126666;1089;102862;-77
2021/06/25 10:11:49;;;;;;;25.17;22.47;;;;;;;25.16;62.64;99968.15;126672;1090;114323;-78
2021/06/25 10:14:38;;;;;;;28.37;24.87;;;;;;;25.16;61.99;99962.81;126770;1089;102908;-78
2021/06/25 10:17:27;;;;;;;28.60;23.80;;;;;;;25.22;62.03;99956.87;126667;1090;114223;-78
2021/06/25 10:20:16;;;;;;;29.40;25.65;;;;;;;25.27;61.61;99972.42;126658;1090;102657;-77
2021/06/25 10:23:07;;;;;;;29.20;23.70;;;;;;;25.22;61.61;99967.55;126729;1089;114409;-78
2021/06/25 10:25:55;;;;;;;26.30;23.50;;;;;;;25.27;61.82;99962.58;126669;1089;102871;-78
2021/06/25 10:28:45;;;;;;;26.17;23.50;;;;;;;25.48;61.82;99964.13;126609;1089;114346;-78
2021/06/25 10:31:34;;;;;;;28.63;25.67;;;;;;;25.70;61.02;99976.25;126713;1090;102942;-78
2021/06/25 10:34:21;;;;;;;27.10;24.13;;;;;;;25.75;61.62;99963.27;126684;1089;114633;-78
2021/06/25 10:37:13;;;;;;;26.73;24.03;;;;;;;25.79;61.40;99962.80;126802;1089;102897;-78
2021/06/25 10:40:25;;;;;;;27.47;24.60;;;;;;;25.83;60.69;99966.83;126678;1089;114423;-78
2021/06/25 10:43:41;;;;;;;25.80;23.17;;;;;;;25.79;60.56;99965.47;126808;1089;102830;-78
2021/06/25 10:46:34;;;;;;;22.30;20.00;;;;;;;25.80;60.70;99985.00;126555;1090;114397;-78
2021/06/25 10:49:22;;;;;;;22.33;20.03;;;;;;;25.86;60.44;99979.06;126631;1090;102859;-78
2021/06/25 10:52:10;;;;;;;23.50;21.10;;;;;;;26.00;59.79;99973.15;126522;1090;114649;-78
2021/06/25 10:55:05;;;;;;;21.07;18.90;;;;;;;26.29;60.33;99964.02;126647;1090;103364;-78
2021/06/25 10:57:57;;;;;;;23.73;21.23;;;;;;;26.68;60.42;99957.25;126787;1090;102934;-78
2021/06/25 11:00:53;;;;;;;22.70;20.43;;;;;;;27.03;58.56;99948.23;126773;1089;102995;-78
2021/06/25 11:03:44;;;;;;;22.70;20.50;;;;;;;27.48;58.42;99948.86;126669;1088;102871;-78
2021/06/25 11:06:44;;;;;;;22.57;20.27;;;;;;;28.01;59.01;99945.73;126587;1090;114856;-79
2021/06/25 11:09:57;;;;;;;21.03;19.03;;;;;;;28.34;58.02;99961.78;126827;1088;102938;-78
2021/06/25 11:12:45;;;;;;;19.90;17.80;;;;;;;28.45;55.53;99961.44;126705;1090;114080;-78
2021/06/25 11:15:33;;;;;;;20.37;18.30;;;;;;;28.31;55.08;99962.97;126661;1089;102987;-77
2021/06/25 11:18:24;;;;;;;19.73;17.67;;;;;;;28.18;55.77;99968.81;126522;1090;114356;-77
2021/06/25 11:21:12;;;;;;;18.57;16.77;;;;;;;28.00;55.50;99978.88;126679;1090;102882;-78
2021/06/25 11:23:59;;;;;;;18.77;16.83;;;;;;;27.88;54.67;99977.56;126672;1089;114982;-78
2021/06/25 11:26:58;;;;;;;19.80;17.87;;;;;;;27.80;54.57;99969.50;126679;1089;102909;-78
2021/06/25 11:29:49;;;;;;;18.57;16.63;;;;;;;27.96;54.75;99964.14;126622;1090;114497;-78
2021/06/25 11:32:36;;;;;;;19.30;17.30;;;;;;;27.96;54.82;99970.34;126686;1090;103023;-78
2021/06/25 11:35:37;;;;;;;18.05;16.15;;;;;;;28.00;55.01;99970.84;126612;1090;113449;-78
2021/06/25 11:38:51;;;;;;;19.50;16.70;;;;;;;28.03;54.84;99967.01;126666;1090;102904;-78
2021/06/25 11:41:45;;;;;;;19.03;15.87;;;;;;;28.06;54.73;99954.09;126544;1089;114603;-78
2021/06/25 11:44:40;;;;;;;18.50;16.60;;;;;;;28.11;54.35;99957.09;126788;1090;103121;-78
2021/06/25 11:47:29;;;;;;;17.57;15.87;;;;;;;28.12;54.51;99950.73;126606;1090;114269;-78
2021/06/25 11:50:20;;;;;;;18.67;16.20;;;;;;;28.19;55.07;99945.55;126823;1088;102973;-78
2021/06/25 11:53:08;;;;;;;21.43;17.17;;;;;;;28.15;54.55;99950.39;126572;1090;114546;-79
2021/06/25 11:55:56;;;;;;;22.00;18.03;;;;;;;27.96;53.41;99959.62;126882;1089;102985;-80
2021/06/25 11:59:08;;;;;;;20.10;18.10;;;;;;;27.75;53.92;99974.53;126751;1088;114521;-79
2021/06/25 12:01:59;;;;;;;23.70;19.87;;;;;;;27.49;54.55;99961.25;126853;1090;102667;-79
2021/06/25 12:04:47;;;;;;;22.33;19.20;;;;;;;27.29;54.08;99958.00;126590;1089;113771;-79
2021/06/25 12:07:36;;;;;;;21.87;19.57;;;;;;;27.17;54.37;99962.00;126760;1090;102937;-78
2021/06/25 12:10:23;;;;;;;22.43;20.00;;;;;;;26.93;54.88;99992.14;126735;1090;113832;-79
2021/06/25 12:13:11;;;;;;;22.40;20.20;;;;;;;26.65;54.27;99988.84;126692;1089;103002;-79
2021/06/25 12:16:00;;;;;;;24.00;21.63;;;;;;;26.35;55.59;99982.97;126765;1088;102818;-78
2021/06/25 12:18:49;;;;;;;24.17;20.97;;;;;;;26.07;55.54;99992.94;126611;1088;114258;-78
2021/06/25 12:21:39;;;;;;;26.70;23.87;;;;;;;25.91;56.99;99990.13;126664;1090;101248;-78
2021/06/25 12:24:27;;;;;;;26.77;24.00;;;;;;;25.79;56.77;99992.18;126593;1089;114465;-79
2021/06/25 12:27:16;;;;;;;66.07;32.87;;;;;;;25.66;56.82;99986.34;126658;1089;103283;-78
2021/06/25 12:30:16;;;;;;;64.93;34.77;;;;;;;25.64;57.24;99993.66;126535;1090;114811;-79
2021/06/25 12:33:06;;;;;;;42.75;28.95;;;;;;;25.56;57.39;100007.80;126818;1090;103001;-79
2021/06/25 12:35:56;;;;;;;49.63;28.47;;;;;;;25.41;57.32;100000.44;126635;1089;114465;-79
2021/06/25 12:38:47;;;;;;;34.10;27.90;;;;;;;25.30;57.12;99999.65;126719;1090;102995;-79
2021/06/25 12:41:47;;;;;;;32.60;26.30;;;;;;;25.18;57.37;100000.87;126560;1089;114438;-79
2021/06/25 12:44:35;;;;;;;30.87;25.87;;;;;;;25.09;57.38;100022.25;126726;1090;102744;-79
2021/06/25 12:47:22;;;;;;;28.40;24.93;;;;;;;24.91;57.71;100017.66;126614;1089;114785;-79
2021/06/25 12:50:11;;;;;;;28.80;24.67;;;;;;;24.81;57.84;100016.03;126883;1088;102931;-79
2021/06/25 12:53:13;;;;;;;28.73;24.93;;;;;;;24.68;58.36;100022.52;126678;1090;113526;-79
2021/06/25 12:56:06;;;;;;;24.97;21.83;;;;;;;24.61;58.17;100017.92;126678;1090;102943;-83
2021/06/25 12:59:01;;;;;;;25.73;22.60;;;;;;;24.52;58.30;100022.28;126828;1090;113490;-82